createdAt,value
2022-11-30T00:02:04.743Z,7.10
2022-11-30T00:04:32.854Z,7.24
2022-11-30T00:07:03.380Z,7.28
2022-11-30T00:09:32.115Z,7.32
2022-11-30T00:12:00.214Z,7.37
2022-11-30T00:14:28.416Z,7.20
2022-11-30T00:16:56.714Z,7.20
2022-11-30T00:19:24.749Z,7.36
2022-11-30T00:21:52.751Z,7.09
2022-11-30T00:24:22.285Z,7.06
2022-11-30T00:26:53.401Z,7.28
2022-11-30T00:29:21.444Z,7.16
2022-11-30T00:31:49.448Z,6.86
2022-11-30T00:34:17.505Z,7.28
2022-11-30T00:36:45.648Z,7.22
2022-11-30T00:39:13.661Z,7.31
2022-11-30T00:41:45.724Z,6.81
2022-11-30T00:44:13.751Z,6.76
2022-11-30T00:46:41.725Z,7.31
2022-11-30T00:49:09.711Z,7.26
2022-11-30T00:51:39.024Z,7.25
2022-11-30T00:54:07.303Z,7.31
2022-11-30T00:56:35.318Z,7.28
2022-11-30T00:59:04.977Z,7.36
2022-11-30T01:01:33.360Z,7.29
2022-11-30T01:04:01.282Z,7.23
2022-11-30T01:06:29.404Z,7.26
2022-11-30T01:08:57.703Z,7.33
2022-11-30T01:11:27.896Z,7.19
2022-11-30T01:13:56.401Z,7.23
2022-11-30T01:16:29.582Z,7.24
2022-11-30T01:18:57.956Z,7.19
2022-11-30T01:21:28.912Z,7.22
2022-11-30T01:23:57.050Z,7.27
2022-11-30T01:26:25.809Z,7.09
2022-11-30T01:28:54.858Z,6.90
2022-11-30T01:31:25.375Z,6.86
2022-11-30T01:33:55.394Z,7.41
2022-11-30T01:36:25.526Z,7.35
2022-11-30T01:38:54.641Z,7.40
2022-11-30T01:41:24.661Z,7.37
2022-11-30T01:43:54.258Z,7.25
2022-11-30T01:46:37.027Z,7.15
2022-11-30T01:49:15.494Z,7.24
2022-11-30T01:51:47.781Z,7.25
2022-11-30T01:54:19.717Z,6.87
2022-11-30T01:56:52.007Z,7.28
2022-11-30T01:59:25.594Z,7.22
2022-11-30T02:01:56.200Z,7.28
2022-11-30T02:04:28.719Z,7.28
2022-11-30T02:06:58.286Z,7.21
2022-11-30T02:09:28.160Z,7.27
2022-11-30T02:11:58.188Z,6.78
2022-11-30T02:14:33.765Z,7.18
2022-11-30T02:17:15.526Z,7.40
2022-11-30T02:20:17.372Z,7.28
2022-11-30T02:23:04.558Z,7.37
2022-11-30T02:25:44.493Z,7.25
2022-11-30T02:28:24.674Z,7.36
2022-11-30T02:30:55.264Z,7.34
2022-11-30T02:33:28.893Z,7.34
2022-11-30T02:35:58.242Z,7.09
2022-11-30T02:38:28.593Z,7.00
2022-11-30T02:40:56.930Z,7.21
2022-11-30T02:43:28.599Z,7.16
2022-11-30T02:46:04.149Z,7.00
2022-11-30T02:48:40.213Z,7.06
2022-11-30T02:51:11.853Z,7.26
2022-11-30T02:53:40.308Z,7.15
2022-11-30T02:56:08.833Z,7.32
2022-11-30T02:58:37.106Z,7.31
2022-11-30T03:01:09.492Z,7.02
2022-11-30T03:03:37.984Z,6.63
2022-11-30T03:06:06.249Z,7.17
2022-11-30T03:08:34.301Z,7.34
2022-11-30T03:11:03.081Z,7.26
2022-11-30T03:13:31.868Z,7.30
2022-11-30T03:16:00.055Z,7.42
2022-11-30T03:18:29.528Z,7.18
2022-11-30T03:20:58.512Z,7.43
2022-11-30T03:23:26.797Z,7.43
2022-11-30T03:25:58.858Z,7.56
2022-11-30T03:28:27.000Z,7.50
2022-11-30T03:30:55.699Z,7.55
2022-11-30T03:33:23.686Z,7.60
2022-11-30T03:36:02.347Z,7.55
2022-11-30T03:38:30.497Z,7.36
2022-11-30T03:41:02.709Z,7.51
2022-11-30T03:43:30.950Z,7.17
2022-11-30T03:45:59.021Z,7.35
2022-11-30T03:48:27.548Z,7.47
2022-11-30T03:50:56.000Z,7.62
2022-11-30T03:53:27.098Z,7.56
2022-11-30T03:55:56.658Z,7.56
2022-11-30T03:58:25.739Z,7.35
2022-11-30T04:01:00.843Z,7.56
2022-11-30T04:03:29.553Z,7.59
2022-11-30T04:05:57.658Z,7.61
2022-11-30T04:08:27.628Z,7.53
2022-11-30T04:10:58.160Z,7.56
2022-11-30T04:13:28.273Z,7.53
2022-11-30T04:15:57.545Z,7.31
2022-11-30T04:18:27.493Z,7.42
2022-11-30T04:20:57.305Z,7.43
2022-11-30T04:23:30.397Z,7.51
2022-11-30T04:25:59.118Z,6.96
2022-11-30T04:28:27.028Z,7.54
2022-11-30T04:30:55.703Z,7.53
2022-11-30T04:33:23.928Z,7.44
2022-11-30T04:35:55.256Z,7.53
2022-11-30T04:38:23.962Z,7.61
2022-11-30T04:40:53.800Z,7.54
2022-11-30T04:43:22.522Z,7.50
2022-11-30T04:45:50.941Z,7.57
2022-11-30T04:48:20.005Z,7.49
2022-11-30T04:50:48.075Z,7.50
2022-11-30T04:53:18.521Z,7.50
2022-11-30T04:55:46.583Z,7.18
2022-11-30T04:58:16.053Z,7.48
2022-11-30T05:00:44.065Z,7.53
2022-11-30T05:03:12.196Z,7.39
2022-11-30T05:05:40.363Z,7.50
2022-11-30T05:08:08.341Z,7.50
2022-11-30T05:10:36.450Z,7.46
2022-11-30T05:13:04.407Z,7.44
2022-11-30T05:15:34.283Z,7.38
2022-11-30T05:18:03.321Z,7.29
2022-11-30T05:20:31.349Z,7.40
2022-11-30T05:22:59.499Z,7.43
2022-11-30T05:25:27.565Z,7.36
2022-11-30T05:27:55.523Z,7.13
2022-11-30T05:30:23.623Z,7.29
2022-11-30T05:32:54.258Z,7.33
2022-11-30T05:35:22.286Z,7.35
2022-11-30T05:37:50.504Z,7.21
2022-11-30T05:40:18.863Z,7.31
2022-11-30T05:42:46.962Z,7.25
2022-11-30T05:45:15.288Z,7.23
2022-11-30T05:47:43.408Z,7.29
2022-11-30T05:50:12.984Z,7.35
2022-11-30T05:52:40.961Z,7.17
2022-11-30T05:55:09.440Z,7.19
2022-11-30T05:57:37.997Z,7.19
2022-11-30T06:00:07.303Z,7.19
2022-11-30T06:02:42.404Z,7.19
2022-11-30T06:05:12.212Z,7.23
2022-11-30T06:07:40.395Z,7.02
2022-11-30T06:10:09.626Z,7.12
2022-11-30T06:12:37.638Z,7.15
2022-11-30T06:15:06.499Z,7.10
2022-11-30T06:17:37.617Z,7.02
2022-11-30T06:20:06.259Z,7.00
2022-11-30T06:22:35.763Z,6.99
2022-11-30T06:25:04.350Z,7.14
2022-11-30T06:27:32.518Z,7.22
2022-11-30T06:30:01.613Z,7.27
2022-11-30T06:32:29.707Z,7.10
2022-11-30T06:34:57.872Z,7.13
2022-11-30T06:37:25.738Z,7.10
2022-11-30T06:40:10.500Z,7.12
2022-11-30T06:42:39.236Z,7.07
2022-11-30T06:45:09.043Z,7.06
2022-11-30T06:47:37.100Z,6.98
2022-11-30T06:50:06.159Z,7.06
2022-11-30T06:52:34.292Z,7.02
2022-11-30T06:55:04.260Z,7.10
2022-11-30T06:57:32.424Z,7.21
2022-11-30T07:00:00.571Z,6.92
2022-11-30T07:02:28.753Z,7.01
2022-11-30T07:04:56.779Z,6.91
2022-11-30T07:07:24.853Z,6.82
2022-11-30T07:09:53.293Z,6.83
2022-11-30T07:12:22.903Z,6.69
2022-11-30T07:14:52.790Z,7.00
2022-11-30T07:17:21.074Z,7.03
2022-11-30T07:19:49.642Z,6.78
2022-11-30T07:22:17.589Z,6.79
2022-11-30T07:25:02.959Z,6.65
2022-11-30T07:27:32.389Z,6.70
2022-11-30T07:30:00.358Z,6.59
2022-11-30T07:32:28.366Z,6.33
2022-11-30T07:34:56.480Z,6.65
2022-11-30T07:37:24.413Z,6.73
2022-11-30T07:39:52.351Z,6.79
2022-11-30T07:42:20.393Z,6.76
2022-11-30T07:44:56.939Z,6.75
2022-11-30T07:47:26.703Z,6.85
2022-11-30T07:49:54.705Z,6.78
2022-11-30T07:52:22.752Z,6.90
2022-11-30T07:54:51.066Z,6.58
2022-11-30T07:57:19.202Z,6.31
2022-11-30T07:59:47.799Z,6.72
2022-11-30T08:02:17.344Z,6.79
2022-11-30T08:04:48.684Z,6.68
2022-11-30T08:07:17.429Z,6.71
2022-11-30T08:09:46.176Z,6.53
2022-11-30T08:12:14.220Z,6.44
2022-11-30T08:15:17.529Z,6.61
2022-11-30T08:17:31.741Z,6.71
2022-11-30T08:20:00.117Z,6.76
2022-11-30T08:22:28.216Z,6.65
2022-11-30T08:24:56.299Z,6.74
2022-11-30T08:27:24.347Z,6.74
2022-11-30T08:29:52.816Z,6.55
2022-11-30T08:32:21.147Z,6.72
2022-11-30T08:34:50.760Z,6.73
2022-11-30T08:37:18.749Z,6.72
2022-11-30T08:39:46.743Z,6.74
2022-11-30T08:42:14.740Z,6.71
2022-11-30T08:44:43.005Z,6.74
2022-11-30T08:47:10.983Z,6.66
2022-11-30T08:49:39.117Z,6.71
2022-11-30T08:52:17.664Z,6.77
2022-11-30T08:54:47.807Z,6.66
2022-11-30T08:57:17.416Z,6.62
2022-11-30T08:59:45.577Z,6.63
2022-11-30T09:02:17.476Z,6.55
2022-11-30T09:04:47.521Z,6.65
2022-11-30T09:07:17.760Z,6.45
2022-11-30T09:09:45.968Z,6.57
2022-11-30T09:12:14.063Z,6.78
2022-11-30T09:14:42.705Z,6.54
2022-11-30T09:17:10.783Z,6.67
2022-11-30T09:19:38.734Z,6.70
2022-11-30T09:22:06.836Z,6.23
2022-11-30T09:24:38.200Z,6.79
2022-11-30T09:27:06.247Z,6.86
2022-11-30T09:29:34.218Z,6.89
2022-11-30T09:32:02.361Z,6.95
2022-11-30T09:34:30.410Z,6.65
2022-11-30T09:36:58.597Z,6.99
2022-11-30T09:39:26.752Z,7.06
2022-11-30T09:42:17.263Z,7.03
2022-11-30T09:44:53.035Z,6.96
2022-11-30T09:47:39.157Z,6.84
2022-11-30T09:50:15.610Z,6.74
2022-11-30T09:52:48.403Z,6.80
2022-11-30T09:55:24.134Z,6.64
2022-11-30T09:57:59.693Z,6.71
2022-11-30T10:00:29.967Z,5.97
2022-11-30T10:03:03.226Z,6.70
2022-11-30T10:05:46.902Z,6.66
2022-11-30T10:08:44.837Z,6.80
2022-11-30T10:11:32.908Z,6.77
2022-11-30T10:14:19.222Z,6.91
2022-11-30T10:16:59.136Z,6.62
2022-11-30T10:19:41.673Z,6.94
2022-11-30T10:22:20.669Z,6.50
2022-11-30T10:25:03.881Z,7.05
2022-11-30T10:27:49.605Z,7.16
2022-11-30T10:30:22.463Z,7.01
2022-11-30T10:32:54.062Z,7.15
2022-11-30T10:35:31.409Z,7.27
2022-11-30T10:38:04.500Z,6.96
2022-11-30T10:40:39.706Z,7.17
2022-11-30T10:43:18.112Z,6.78
2022-11-30T10:45:49.358Z,7.19
2022-11-30T10:48:21.932Z,7.18
2022-11-30T10:50:50.084Z,7.09
2022-11-30T10:53:18.227Z,7.16
2022-11-30T10:55:55.050Z,7.09
2022-11-30T10:58:28.706Z,7.16
2022-11-30T11:01:03.715Z,7.23
2022-11-30T11:03:32.595Z,7.05
2022-11-30T11:06:07.735Z,7.11
2022-11-30T11:08:36.456Z,6.94
2022-11-30T11:11:06.190Z,6.93
2022-11-30T11:13:39.907Z,6.88
2022-11-30T11:16:11.176Z,6.73
2022-11-30T11:18:53.553Z,6.84
2022-11-30T11:21:23.855Z,6.76
2022-11-30T11:23:52.969Z,6.83
2022-11-30T11:26:24.255Z,6.89
2022-11-30T11:28:54.137Z,6.53
2022-11-30T11:31:44.150Z,6.70
2022-11-30T11:34:25.621Z,6.83
2022-11-30T11:37:06.304Z,6.66
2022-11-30T11:39:34.639Z,6.39
2022-11-30T11:42:02.792Z,6.45
2022-11-30T11:44:31.818Z,6.82
2022-11-30T11:47:03.591Z,6.89
2022-11-30T11:49:34.123Z,6.37
2022-11-30T11:52:04.540Z,6.83
2022-11-30T11:54:36.779Z,6.82
2022-11-30T11:57:08.498Z,6.60
2022-11-30T11:59:41.975Z,6.50
2022-11-30T12:02:27.266Z,6.40
2022-11-30T12:04:59.412Z,6.51
2022-11-30T12:07:33.365Z,6.34
2022-11-30T12:10:50.183Z,6.41
2022-11-30T12:13:13.105Z,6.46
2022-11-30T12:15:52.826Z,6.26
2022-11-30T12:18:26.061Z,6.51
2022-11-30T12:20:59.355Z,6.73
2022-11-30T12:23:45.947Z,6.83
2022-11-30T12:26:22.751Z,6.30
2022-11-30T12:29:04.246Z,6.32
2022-11-30T12:31:42.596Z,6.58
2022-11-30T12:34:20.089Z,6.46
2022-11-30T12:36:57.926Z,6.38
2022-11-30T12:39:33.552Z,6.48
2022-11-30T12:42:08.103Z,6.47
2022-11-30T12:44:47.020Z,6.54
2022-11-30T12:47:29.832Z,6.58
2022-11-30T12:50:10.116Z,6.72
2022-11-30T12:52:43.795Z,6.56
2022-11-30T12:55:26.430Z,6.43
2022-11-30T12:58:01.014Z,6.43
2022-11-30T13:00:40.801Z,6.30
2022-11-30T13:03:36.543Z,6.49
2022-11-30T13:06:13.154Z,6.43
2022-11-30T13:08:49.535Z,6.83
2022-11-30T13:11:22.595Z,6.67
2022-11-30T13:13:55.621Z,6.89
2022-11-30T13:16:25.654Z,6.81
2022-11-30T13:19:01.201Z,6.84
2022-11-30T13:21:37.661Z,6.77
2022-11-30T13:24:12.934Z,6.88
2022-11-30T13:26:48.460Z,6.80
2022-11-30T13:29:32.845Z,6.82
2022-11-30T13:32:22.256Z,6.84
2022-11-30T13:35:35.313Z,6.81
2022-11-30T13:38:35.161Z,6.88
2022-11-30T13:41:00.258Z,6.41
2022-11-30T13:43:32.410Z,6.63
2022-11-30T13:46:16.089Z,6.72
2022-11-30T13:48:45.669Z,6.75
2022-11-30T13:51:35.809Z,6.76
2022-11-30T13:54:37.135Z,6.80
2022-11-30T13:57:18.111Z,6.78
2022-11-30T13:59:49.354Z,6.82
2022-11-30T14:02:53.747Z,6.83
2022-11-30T14:05:35.888Z,6.91
2022-11-30T14:08:32.372Z,6.86
2022-11-30T14:11:38.108Z,6.68
2022-11-30T14:14:45.648Z,6.75
2022-11-30T14:17:27.601Z,6.64
2022-11-30T14:20:00.328Z,6.71
2022-11-30T14:22:30.568Z,6.65
2022-11-30T14:24:58.814Z,6.73
2022-11-30T14:27:30.032Z,6.74
2022-11-30T14:30:04.493Z,6.71
2022-11-30T14:32:39.081Z,6.71
2022-11-30T14:35:11.587Z,6.50
2022-11-30T14:37:46.972Z,6.74
2022-11-30T14:40:19.247Z,6.72
2022-11-30T14:42:49.935Z,6.62
2022-11-30T14:45:25.086Z,6.61
2022-11-30T14:47:56.133Z,6.62
2022-11-30T14:50:26.625Z,6.64
2022-11-30T14:53:07.363Z,6.61
2022-11-30T14:55:44.964Z,6.54
2022-11-30T14:58:23.492Z,6.55
2022-11-30T15:00:53.736Z,6.59
2022-11-30T15:03:25.567Z,6.64
2022-11-30T15:05:56.560Z,5.97
2022-11-30T15:08:34.359Z,6.63
2022-11-30T15:11:07.143Z,6.57
2022-11-30T15:13:40.511Z,6.44
2022-11-30T15:16:19.647Z,6.38
2022-11-30T15:18:47.811Z,6.53
2022-11-30T15:21:20.157Z,6.22
2022-11-30T15:23:51.473Z,6.24
2022-11-30T15:26:25.710Z,6.35
2022-11-30T15:28:59.729Z,6.04
2022-11-30T15:31:36.773Z,5.92
2022-11-30T15:34:05.809Z,5.96
2022-11-30T15:36:35.950Z,6.13
2022-11-30T15:39:07.557Z,6.07
2022-11-30T15:41:37.105Z,6.16
2022-11-30T15:44:05.218Z,6.01
2022-11-30T15:46:42.759Z,6.08
2022-11-30T15:49:19.093Z,6.21
2022-11-30T15:51:54.479Z,6.36
2022-11-30T15:54:43.700Z,6.50
2022-11-30T15:57:12.596Z,6.46
2022-11-30T15:59:41.497Z,6.50
2022-11-30T16:02:26.932Z,6.39
2022-11-30T16:05:24.437Z,6.47
2022-11-30T16:07:55.232Z,6.56
2022-11-30T16:10:25.669Z,6.58
2022-11-30T16:12:54.209Z,6.51
2022-11-30T16:15:24.076Z,6.55
2022-11-30T16:17:55.071Z,6.59
2022-11-30T16:20:24.136Z,6.44
2022-11-30T16:22:52.279Z,5.95
2022-11-30T16:25:22.720Z,6.60
2022-11-30T16:27:51.473Z,6.54
2022-11-30T16:30:22.509Z,5.86
2022-11-30T16:32:51.067Z,6.63
2022-11-30T16:35:24.415Z,6.62
2022-11-30T16:37:52.897Z,6.43
2022-11-30T16:40:21.581Z,6.22
2022-11-30T16:42:51.541Z,6.64
2022-11-30T16:45:22.210Z,6.37
2022-11-30T16:47:50.984Z,6.31
2022-11-30T16:50:20.451Z,6.35
2022-11-30T16:52:49.957Z,6.37
2022-11-30T16:55:20.844Z,6.27
2022-11-30T16:57:50.119Z,6.24
2022-11-30T17:00:20.824Z,6.12
2022-11-30T17:03:00.866Z,6.38
2022-11-30T17:05:30.476Z,6.23
2022-11-30T17:08:00.200Z,6.00
2022-11-30T17:10:28.534Z,6.12
2022-11-30T17:12:56.810Z,6.20
2022-11-30T17:15:25.535Z,6.22
2022-11-30T17:17:57.600Z,6.27
2022-11-30T17:20:26.002Z,6.37
2022-11-30T17:22:54.475Z,6.40
2022-11-30T17:25:25.165Z,6.42
2022-11-30T17:27:53.610Z,6.06
2022-11-30T17:30:23.909Z,6.12
2022-11-30T17:32:52.224Z,6.30
2022-11-30T17:35:20.662Z,6.35
2022-11-30T17:37:48.700Z,6.36
2022-11-30T17:40:17.038Z,6.30
2022-11-30T17:42:46.409Z,6.40
2022-11-30T17:45:14.417Z,6.36
2022-11-30T17:47:42.374Z,6.36
2022-11-30T17:50:11.516Z,6.43
2022-11-30T17:52:39.437Z,6.28
2022-11-30T17:55:08.490Z,6.40
2022-11-30T17:57:38.241Z,6.28
2022-11-30T18:00:09.653Z,6.37
2022-11-30T18:02:37.685Z,6.42
2022-11-30T18:05:06.441Z,6.33
2022-11-30T18:07:34.536Z,6.30
2022-11-30T18:10:02.701Z,6.35
2022-11-30T18:12:30.637Z,6.37
2022-11-30T18:14:59.079Z,6.46
2022-11-30T18:17:28.491Z,6.33
2022-11-30T18:19:56.439Z,6.47
2022-11-30T18:22:24.431Z,6.44
2022-11-30T18:24:52.454Z,6.48
2022-11-30T18:27:20.437Z,6.40
2022-11-30T18:29:48.438Z,6.31
2022-11-30T18:32:16.384Z,6.31
2022-11-30T18:34:49.818Z,6.01
2022-11-30T18:37:18.154Z,6.14
2022-11-30T18:39:46.134Z,6.11
2022-11-30T18:42:14.193Z,6.03
2022-11-30T18:44:42.375Z,5.89
2022-11-30T18:47:10.446Z,5.78
2022-11-30T18:49:38.364Z,5.88
2022-11-30T18:52:07.802Z,5.97
2022-11-30T18:54:36.282Z,5.87
2022-11-30T18:57:04.285Z,5.78
2022-11-30T18:59:32.482Z,6.11
2022-11-30T19:02:00.614Z,6.33
2022-11-30T19:04:28.621Z,6.26
2022-11-30T19:06:56.642Z,5.70
2022-11-30T19:09:26.149Z,6.18
2022-11-30T19:11:58.013Z,6.22
2022-11-30T19:14:25.942Z,6.27
2022-11-30T19:16:54.017Z,6.07
2022-11-30T19:19:22.742Z,6.09
2022-11-30T19:21:50.725Z,6.33
2022-11-30T19:24:18.703Z,6.26
2022-11-30T19:26:48.409Z,6.37
2022-11-30T19:29:16.341Z,6.34
2022-11-30T19:31:44.309Z,6.40
2022-11-30T19:34:13.443Z,5.93
2022-11-30T19:36:41.854Z,6.26
2022-11-30T19:39:11.285Z,6.38
2022-11-30T19:41:39.244Z,6.29
2022-11-30T19:44:13.635Z,6.13
2022-11-30T19:46:41.953Z,6.17
2022-11-30T19:49:11.267Z,6.15
2022-11-30T19:51:39.288Z,6.31
2022-11-30T19:54:07.529Z,6.31
2022-11-30T19:56:35.826Z,6.20
2022-11-30T19:59:05.511Z,6.22
2022-11-30T20:01:35.513Z,6.12
2022-11-30T20:04:04.323Z,5.97
2022-11-30T20:06:34.029Z,5.95
2022-11-30T20:09:01.974Z,6.04
2022-11-30T20:11:30.400Z,6.10
2022-11-30T20:13:58.705Z,6.15
2022-11-30T20:16:27.206Z,6.17
2022-11-30T20:19:00.785Z,5.98
2022-11-30T20:21:30.744Z,5.55
2022-11-30T20:24:01.042Z,6.09
2022-11-30T20:26:30.331Z,6.12
2022-11-30T20:29:00.395Z,6.10
2022-11-30T20:31:30.280Z,6.21
2022-11-30T20:33:59.942Z,5.68
2022-11-30T20:36:28.063Z,5.60
2022-11-30T20:38:56.175Z,5.04
2022-11-30T20:41:25.637Z,5.54
2022-11-30T20:43:53.985Z,6.04
2022-11-30T20:46:24.193Z,5.94
2022-11-30T20:48:52.637Z,6.00
2022-11-30T20:51:33.217Z,6.05
2022-11-30T20:54:03.730Z,5.83
2022-11-30T20:56:31.905Z,6.16
2022-11-30T20:59:02.625Z,6.21
2022-11-30T21:01:31.514Z,6.15
2022-11-30T21:04:00.727Z,5.65
2022-11-30T21:06:30.995Z,6.11
2022-11-30T21:08:59.523Z,5.87
2022-11-30T21:11:28.964Z,6.12
2022-11-30T21:13:58.530Z,6.01
2022-11-30T21:16:29.685Z,6.10
2022-11-30T21:18:59.828Z,6.04
2022-11-30T21:21:31.210Z,6.04
2022-11-30T21:24:01.170Z,6.06
2022-11-30T21:26:31.464Z,6.19
2022-11-30T21:29:00.898Z,6.16
2022-11-30T21:31:29.569Z,5.69
2022-11-30T21:33:57.565Z,5.71
2022-11-30T21:36:25.823Z,6.13
2022-11-30T21:39:05.720Z,5.89
2022-11-30T21:41:35.837Z,6.05
2022-11-30T21:44:04.338Z,6.05
2022-11-30T21:46:32.695Z,5.78
2022-11-30T21:49:01.443Z,5.96
2022-11-30T21:51:31.734Z,5.73
2022-11-30T21:54:04.225Z,5.69
2022-11-30T21:56:34.935Z,5.96
2022-11-30T21:59:04.922Z,5.94
2022-11-30T22:01:34.985Z,5.87
2022-11-30T22:04:04.869Z,5.82
2022-11-30T22:06:35.795Z,5.90
2022-11-30T22:09:08.743Z,6.00
2022-11-30T22:11:38.996Z,5.91
2022-11-30T22:14:07.386Z,5.96
2022-11-30T22:16:36.520Z,5.54
2022-11-30T22:19:06.706Z,5.72
2022-11-30T22:21:35.259Z,5.88
2022-11-30T22:24:06.568Z,5.93
2022-11-30T22:26:36.236Z,5.92
2022-11-30T22:29:06.539Z,5.78
2022-11-30T22:31:35.486Z,5.99
2022-11-30T22:34:04.479Z,6.02
2022-11-30T22:36:34.101Z,6.10
2022-11-30T22:39:03.995Z,5.99
2022-11-30T22:41:33.997Z,6.04
2022-11-30T22:44:02.772Z,5.86
2022-11-30T22:46:33.600Z,6.03
2022-11-30T22:49:02.443Z,5.88
2022-11-30T22:51:32.451Z,5.81
2022-11-30T22:54:01.587Z,5.78
2022-11-30T22:56:36.462Z,5.87
2022-11-30T22:59:06.604Z,5.87
2022-11-30T23:01:36.548Z,5.76
2022-11-30T23:04:07.220Z,5.90
2022-11-30T23:06:36.184Z,5.51
2022-11-30T23:09:06.420Z,5.57
2022-11-30T23:11:36.825Z,5.47
2022-11-30T23:14:08.444Z,5.83
2022-11-30T23:16:37.808Z,5.87
2022-11-30T23:19:07.015Z,6.00
2022-11-30T23:21:41.351Z,5.71
2022-11-30T23:24:13.962Z,5.77
2022-11-30T23:26:43.877Z,5.80
2022-11-30T23:29:13.815Z,5.71
2022-11-30T23:31:43.951Z,5.78
2022-11-30T23:34:18.037Z,5.67
2022-11-30T23:36:46.551Z,5.65
2022-11-30T23:39:16.683Z,5.56
2022-11-30T23:41:46.291Z,5.12
2022-11-30T23:44:14.382Z,5.79
2022-11-30T23:46:42.759Z,5.80
2022-11-30T23:49:13.050Z,5.79
2022-11-30T23:51:40.808Z,5.95
2022-11-30T23:54:11.567Z,5.91
2022-11-30T23:56:39.703Z,5.56
2022-11-30T23:59:09.022Z,5.80
